createdAt,value
2023-02-11T00:03:21.128Z,47.35
2023-02-11T00:08:23.889Z,43.17
2023-02-11T00:13:26.824Z,45.90
2023-02-11T00:18:29.584Z,44.33
2023-02-11T00:23:32.320Z,45.42
2023-02-11T00:28:35.100Z,44.55
2023-02-11T00:33:37.891Z,45.00
2023-02-11T00:38:43.262Z,51.38
2023-02-11T00:43:46.649Z,40.60
2023-02-11T00:48:49.937Z,43.55
2023-02-11T00:53:52.795Z,43.28
2023-02-11T00:58:55.577Z,38.90
2023-02-11T01:03:58.337Z,45.05
2023-02-11T01:09:01.062Z,43.38
2023-02-11T01:14:04.132Z,38.00
2023-02-11T01:19:06.808Z,41.60
2023-02-11T01:24:09.486Z,45.88
2023-02-11T01:29:12.192Z,45.70
2023-02-11T01:34:14.741Z,47.08
2023-02-11T01:39:17.279Z,48.20
2023-02-11T01:44:28.532Z,44.30
2023-02-11T01:49:32.479Z,43.42
2023-02-11T01:54:59.997Z,40.22
2023-02-11T02:00:05.351Z,43.03
2023-02-11T02:05:16.896Z,43.85
2023-02-11T02:10:21.596Z,40.47
2023-02-11T02:15:29.541Z,39.88
2023-02-11T02:20:32.368Z,45.00
2023-02-11T02:25:35.201Z,44.60
2023-02-11T02:30:46.958Z,45.70
2023-02-11T02:36:04.912Z,42.45
2023-02-11T02:41:09.768Z,41.15
2023-02-11T02:46:15.567Z,46.05
2023-02-11T02:51:30.245Z,44.33
2023-02-11T02:56:33.309Z,43.22
2023-02-11T03:01:41.842Z,44.97
2023-02-11T03:06:56.859Z,41.08
2023-02-11T03:12:01.002Z,46.85
2023-02-11T03:17:08.200Z,42.63
2023-02-11T03:22:13.606Z,43.50
2023-02-11T03:27:22.145Z,47.58
2023-02-11T03:32:29.471Z,46.50
2023-02-11T03:38:04.887Z,44.30
2023-02-11T03:43:27.848Z,44.35
2023-02-11T03:48:33.373Z,50.30
2023-02-11T03:53:37.053Z,45.08
2023-02-11T03:58:39.714Z,48.70
2023-02-11T04:03:42.547Z,47.72
2023-02-11T04:08:45.249Z,53.65
2023-02-11T04:13:47.770Z,51.67
2023-02-11T04:18:50.316Z,50.65
2023-02-11T04:23:52.963Z,46.53
2023-02-11T04:28:55.520Z,52.17
2023-02-11T04:33:58.305Z,49.80
2023-02-11T04:39:01.052Z,48.33
2023-02-11T04:44:04.245Z,50.97
2023-02-11T04:49:06.750Z,53.45
2023-02-11T04:54:09.527Z,57.90
2023-02-11T04:59:13.704Z,52.13
2023-02-11T05:04:16.476Z,58.40
2023-02-11T05:09:19.076Z,54.42
2023-02-11T05:14:21.582Z,54.40
2023-02-11T05:19:24.095Z,56.60
2023-02-11T05:24:26.828Z,56.75
2023-02-11T05:29:29.646Z,59.80
2023-02-11T05:34:32.208Z,56.63
2023-02-11T05:39:35.098Z,61.22
2023-02-11T05:44:37.819Z,60.50
2023-02-11T05:49:40.526Z,54.55
2023-02-11T05:54:43.390Z,52.83
2023-02-11T05:59:46.138Z,58.50
2023-02-11T06:04:49.001Z,59.80
2023-02-11T06:09:51.819Z,62.97
2023-02-11T06:14:54.540Z,61.78
2023-02-11T06:19:57.226Z,64.53
2023-02-11T06:25:02.064Z,60.60
2023-02-11T06:30:05.806Z,66.20
2023-02-11T06:35:11.639Z,67.07
2023-02-11T06:40:16.172Z,70.43
2023-02-11T06:45:19.385Z,73.43
2023-02-11T06:50:22.217Z,73.75
2023-02-11T06:55:25.036Z,69.85
2023-02-11T07:00:29.410Z,70.50
2023-02-11T07:05:34.385Z,68.10
2023-02-11T07:10:37.473Z,70.32
2023-02-11T07:15:40.243Z,74.32
2023-02-11T07:20:43.029Z,70.13
2023-02-11T07:25:45.512Z,76.47
2023-02-11T07:30:48.361Z,68.68
2023-02-11T07:35:51.510Z,70.93
2023-02-11T07:40:54.579Z,68.85
2023-02-11T07:45:57.233Z,75.38
2023-02-11T07:51:13.739Z,64.88
2023-02-11T07:56:17.025Z,67.03
2023-02-11T08:01:22.805Z,70.43
2023-02-11T08:06:28.061Z,69.60
2023-02-11T08:11:30.628Z,64.53
2023-02-11T08:16:34.499Z,69.80
2023-02-11T08:21:37.253Z,66.20
2023-02-11T08:26:40.066Z,68.18
2023-02-11T08:31:43.748Z,68.95
2023-02-11T08:36:47.400Z,76.45
2023-02-11T08:41:54.822Z,66.72
2023-02-11T08:46:57.341Z,67.22
2023-02-11T08:52:04.719Z,66.80
2023-02-11T08:57:07.416Z,65.18
2023-02-11T09:02:14.520Z,74.97
2023-02-11T09:07:17.278Z,69.18
2023-02-11T09:12:20.062Z,64.68
2023-02-11T09:17:22.788Z,59.35
2023-02-11T09:22:25.532Z,62.50
2023-02-11T09:27:28.336Z,61.42
2023-02-11T09:32:30.879Z,60.75
2023-02-11T09:37:36.945Z,54.40
2023-02-11T09:43:02.990Z,61.95
2023-02-11T09:48:17.375Z,62.15
2023-02-11T09:53:29.882Z,68.63
2023-02-11T10:03:39.901Z,69.43
2023-02-11T10:09:02.891Z,75.65
2023-02-11T10:14:05.546Z,69.03
2023-02-11T10:19:26.568Z,64.88
2023-02-11T10:24:30.066Z,64.78
2023-02-11T10:29:38.817Z,76.15
2023-02-11T10:34:42.741Z,70.88
2023-02-11T10:39:45.537Z,77.80
2023-02-11T10:44:57.166Z,74.68
2023-02-11T10:50:03.780Z,77.90
2023-02-11T10:55:21.052Z,78.97
2023-02-11T11:00:26.941Z,78.65
2023-02-11T11:05:34.365Z,85.85
2023-02-11T11:10:45.481Z,77.50
2023-02-11T11:16:06.701Z,71.00
2023-02-11T11:21:28.115Z,74.07
2023-02-11T11:26:41.720Z,79.82
2023-02-11T11:31:49.469Z,72.10
2023-02-11T11:36:52.125Z,66.20
2023-02-11T11:41:59.673Z,62.67
2023-02-11T11:47:25.509Z,62.58
2023-02-11T11:52:40.244Z,64.13
2023-02-11T11:57:43.087Z,54.60
2023-02-11T12:02:54.976Z,58.10
2023-02-11T12:08:08.750Z,51.70
2023-02-11T12:13:29.962Z,53.72
2023-02-11T12:18:51.394Z,49.60
2023-02-11T12:23:56.948Z,56.78
2023-02-11T12:28:59.450Z,53.03
2023-02-11T12:34:05.230Z,41.92
2023-02-11T12:39:26.652Z,41.30
2023-02-11T12:44:52.046Z,38.92
2023-02-11T12:50:05.499Z,43.47
2023-02-11T12:55:16.488Z,37.53
2023-02-11T13:00:21.307Z,36.85
2023-02-11T13:05:24.080Z,39.42
2023-02-11T13:10:30.450Z,36.67
2023-02-11T13:15:33.623Z,42.17
2023-02-11T13:20:43.673Z,38.65
2023-02-11T13:25:46.305Z,40.72
2023-02-11T13:30:52.637Z,36.60
2023-02-11T13:35:58.537Z,40.22
2023-02-11T13:41:05.053Z,36.03
2023-02-11T13:46:12.061Z,36.05
2023-02-11T13:51:18.783Z,35.90
2023-02-11T13:56:24.482Z,36.78
2023-02-11T14:01:40.960Z,35.95
2023-02-11T14:07:21.793Z,35.22
2023-02-11T14:12:30.301Z,34.78
2023-02-11T14:17:34.420Z,34.45
2023-02-11T14:22:42.752Z,36.28
2023-02-11T14:27:57.959Z,38.00
2023-02-11T14:33:29.880Z,37.88
2023-02-11T14:38:50.754Z,30.60
2023-02-11T14:44:05.059Z,35.33
2023-02-11T14:49:08.710Z,30.80
2023-02-11T14:54:15.612Z,33.30
2023-02-11T14:59:19.819Z,32.75
2023-02-11T15:04:31.126Z,33.35
2023-02-11T15:09:45.555Z,31.67
2023-02-11T15:14:50.005Z,27.60
2023-02-11T15:19:57.308Z,26.35
2023-02-11T15:25:00.055Z,25.48
2023-02-11T15:30:02.641Z,36.80
2023-02-11T15:35:05.685Z,25.00
2023-02-11T15:40:15.585Z,30.73
2023-02-11T15:45:26.415Z,23.13
2023-02-11T15:50:31.224Z,24.23
2023-02-11T15:55:34.798Z,24.67
2023-02-11T16:00:39.188Z,23.38
2023-02-11T16:05:41.822Z,22.85
2023-02-11T16:10:54.054Z,20.98
2023-02-11T16:15:58.786Z,21.83
2023-02-11T16:21:02.688Z,18.30
2023-02-11T16:26:09.041Z,21.02
2023-02-11T16:31:12.021Z,23.13
2023-02-11T16:36:17.435Z,18.20
2023-02-11T16:41:22.505Z,17.92
2023-02-11T16:46:26.968Z,21.55
2023-02-11T16:51:29.582Z,18.70
2023-02-11T16:56:32.291Z,17.67
2023-02-11T17:01:35.649Z,16.75
2023-02-11T17:06:38.301Z,16.67
2023-02-11T17:11:40.962Z,13.55
2023-02-11T17:16:45.375Z,14.82
2023-02-11T17:21:49.677Z,12.65
2023-02-11T17:26:52.474Z,12.65
2023-02-11T17:31:56.247Z,14.10
2023-02-11T17:37:00.559Z,14.25
2023-02-11T17:42:03.514Z,12.05
2023-02-11T17:47:06.370Z,16.63
2023-02-11T17:52:09.474Z,14.25
2023-02-11T17:57:12.965Z,13.98
2023-02-11T18:02:15.681Z,13.98
2023-02-11T18:07:20.153Z,12.80
2023-02-11T18:12:26.881Z,12.18
2023-02-11T18:17:29.677Z,11.35
2023-02-11T18:22:39.046Z,11.55
2023-02-11T18:27:42.258Z,13.18
2023-02-11T18:32:45.198Z,10.25
2023-02-11T18:37:48.708Z,12.02
2023-02-11T18:42:51.630Z,11.90
2023-02-11T18:47:54.370Z,9.98
2023-02-11T18:52:57.187Z,10.73
2023-02-11T18:57:59.891Z,10.73
2023-02-11T19:03:02.888Z,11.77
2023-02-11T19:08:05.480Z,10.43
2023-02-11T19:13:08.314Z,9.43
2023-02-11T19:18:11.437Z,11.43
2023-02-11T19:23:14.040Z,12.85
2023-02-11T19:28:16.855Z,12.40
2023-02-11T19:33:19.332Z,50.15
2023-02-11T19:38:21.999Z,54.10
2023-02-11T19:43:25.887Z,94.30
2023-02-11T19:48:28.628Z,87.82
2023-02-11T19:53:31.243Z,16.15
2023-02-11T19:58:34.774Z,30.13
2023-02-11T20:03:37.344Z,28.83
2023-02-11T20:08:40.156Z,39.75
2023-02-11T20:13:43.358Z,41.70
2023-02-11T20:18:46.464Z,31.92
2023-02-11T20:23:50.432Z,21.58
2023-02-11T20:28:53.858Z,21.02
2023-02-11T20:33:59.535Z,36.80
2023-02-11T20:39:03.215Z,31.05
2023-02-11T20:44:07.611Z,18.77
2023-02-11T20:49:11.509Z,24.63
2023-02-11T20:54:15.095Z,15.88
2023-02-11T20:59:18.644Z,14.60
2023-02-11T21:04:23.508Z,13.50
2023-02-11T21:09:27.695Z,12.43
2023-02-11T21:14:30.570Z,9.73
2023-02-11T21:19:33.664Z,15.20
2023-02-11T21:24:36.528Z,12.45
2023-02-11T21:29:52.749Z,11.48
2023-02-11T21:34:56.551Z,13.30
2023-02-11T21:39:59.214Z,14.32
2023-02-11T21:45:01.856Z,11.35
2023-02-11T21:50:04.526Z,23.50
2023-02-11T21:55:07.227Z,14.10
2023-02-11T22:00:11.192Z,13.38
2023-02-11T22:05:14.012Z,11.70
2023-02-11T22:10:17.230Z,22.98
2023-02-11T22:15:20.002Z,27.08
2023-02-11T22:20:23.385Z,19.63
2023-02-11T22:25:26.109Z,21.15
2023-02-11T22:30:28.981Z,20.90
2023-02-11T22:35:31.994Z,20.83
2023-02-11T22:40:34.868Z,11.90
2023-02-11T22:45:37.518Z,13.77
2023-02-11T22:50:40.374Z,14.38
2023-02-11T22:55:42.951Z,19.58
2023-02-11T23:00:45.699Z,12.75
2023-02-11T23:05:48.443Z,12.02
2023-02-11T23:10:51.212Z,13.25
2023-02-11T23:15:54.297Z,14.20
2023-02-11T23:21:02.486Z,16.70
2023-02-11T23:26:08.777Z,15.00
2023-02-11T23:31:16.098Z,17.10
2023-02-11T23:36:20.084Z,15.70
2023-02-11T23:41:23.161Z,18.00
2023-02-11T23:46:26.622Z,17.73
2023-02-11T23:51:29.713Z,14.15
2023-02-11T23:56:32.388Z,16.77
